sensor_id;sensor_type;location;lat;lon;timestamp;temperature;humidity
33863;DHT22;20158;51.436;-2.742;2023-07-22T00:00:55;18.70;58.50
33863;DHT22;20158;51.436;-2.742;2023-07-22T00:03:21;18.70;58.70
33863;DHT22;20158;51.436;-2.742;2023-07-22T00:05:48;18.70;58.90
33863;DHT22;20158;51.436;-2.742;2023-07-22T00:08:14;18.70;58.90
33863;DHT22;20158;51.436;-2.742;2023-07-22T00:10:41;18.70;59.10
33863;DHT22;20158;51.436;-2.742;2023-07-22T00:13:08;18.70;59.20
33863;DHT22;20158;51.436;-2.742;2023-07-22T00:15:34;18.70;59.40
33863;DHT22;20158;51.436;-2.742;2023-07-22T00:18:00;18.70;59.50
33863;DHT22;20158;51.436;-2.742;2023-07-22T00:20:26;18.70;59.60
33863;DHT22;20158;51.436;-2.742;2023-07-22T00:22:53;18.70;59.80
33863;DHT22;20158;51.436;-2.742;2023-07-22T00:25:19;18.70;59.90
33863;DHT22;20158;51.436;-2.742;2023-07-22T00:27:45;18.70;60.00
33863;DHT22;20158;51.436;-2.742;2023-07-22T00:30:11;18.70;60.10
33863;DHT22;20158;51.436;-2.742;2023-07-22T00:32:37;18.70;60.20
33863;DHT22;20158;51.436;-2.742;2023-07-22T00:35:06;18.70;60.30
33863;DHT22;20158;51.436;-2.742;2023-07-22T00:37:33;18.70;60.50
33863;DHT22;20158;51.436;-2.742;2023-07-22T00:40:00;18.70;60.60
33863;DHT22;20158;51.436;-2.742;2023-07-22T00:42:26;18.70;60.70
33863;DHT22;20158;51.436;-2.742;2023-07-22T00:44:53;18.70;60.80
33863;DHT22;20158;51.436;-2.742;2023-07-22T00:47:19;18.70;60.80
33863;DHT22;20158;51.436;-2.742;2023-07-22T00:49:47;18.70;60.90
33863;DHT22;20158;51.436;-2.742;2023-07-22T00:52:14;18.70;61.00
33863;DHT22;20158;51.436;-2.742;2023-07-22T00:54:42;18.70;61.00
33863;DHT22;20158;51.436;-2.742;2023-07-22T00:57:09;18.70;61.10
33863;DHT22;20158;51.436;-2.742;2023-07-22T00:59:35;18.60;61.00
33863;DHT22;20158;51.436;-2.742;2023-07-22T01:02:01;18.60;61.10
33863;DHT22;20158;51.436;-2.742;2023-07-22T01:04:27;18.60;61.20
33863;DHT22;20158;51.436;-2.742;2023-07-22T01:06:54;18.60;61.30
33863;DHT22;20158;51.436;-2.742;2023-07-22T01:09:20;18.60;61.40
33863;DHT22;20158;51.436;-2.742;2023-07-22T01:11:46;18.60;61.40
33863;DHT22;20158;51.436;-2.742;2023-07-22T01:14:12;18.60;61.50
33863;DHT22;20158;51.436;-2.742;2023-07-22T01:16:38;18.60;61.60
33863;DHT22;20158;51.436;-2.742;2023-07-22T01:19:05;18.50;61.40
33863;DHT22;20158;51.436;-2.742;2023-07-22T01:21:33;18.50;61.50
33863;DHT22;20158;51.436;-2.742;2023-07-22T01:24:00;18.50;61.60
33863;DHT22;20158;51.436;-2.742;2023-07-22T01:26:27;18.50;61.70
33863;DHT22;20158;51.436;-2.742;2023-07-22T01:29:05;18.50;61.70
33863;DHT22;20158;51.436;-2.742;2023-07-22T01:31:34;18.40;61.80
33863;DHT22;20158;51.436;-2.742;2023-07-22T01:34:02;18.40;61.70
33863;DHT22;20158;51.436;-2.742;2023-07-22T01:36:29;18.40;61.80
33863;DHT22;20158;51.436;-2.742;2023-07-22T01:38:56;18.40;61.80
33863;DHT22;20158;51.436;-2.742;2023-07-22T01:41:22;18.40;61.90
33863;DHT22;20158;51.436;-2.742;2023-07-22T01:43:47;18.30;61.80
33863;DHT22;20158;51.436;-2.742;2023-07-22T01:46:14;18.30;61.80
33863;DHT22;20158;51.436;-2.742;2023-07-22T01:48:40;18.30;61.90
33863;DHT22;20158;51.436;-2.742;2023-07-22T01:51:06;18.30;61.90
33863;DHT22;20158;51.436;-2.742;2023-07-22T01:53:33;18.30;62.00
33863;DHT22;20158;51.436;-2.742;2023-07-22T01:55:58;18.30;62.10
33863;DHT22;20158;51.436;-2.742;2023-07-22T01:58:24;18.20;62.00
33863;DHT22;20158;51.436;-2.742;2023-07-22T02:00:51;18.20;62.00
33863;DHT22;20158;51.436;-2.742;2023-07-22T02:03:17;18.20;62.10
33863;DHT22;20158;51.436;-2.742;2023-07-22T02:05:43;18.20;62.20
33863;DHT22;20158;51.436;-2.742;2023-07-22T02:08:09;18.20;62.20
33863;DHT22;20158;51.436;-2.742;2023-07-22T02:10:35;18.10;62.10
33863;DHT22;20158;51.436;-2.742;2023-07-22T02:13:01;18.10;62.20
33863;DHT22;20158;51.436;-2.742;2023-07-22T02:15:31;18.10;62.30
33863;DHT22;20158;51.436;-2.742;2023-07-22T02:17:57;18.10;62.30
33863;DHT22;20158;51.436;-2.742;2023-07-22T02:20:24;18.10;62.40
33863;DHT22;20158;51.436;-2.742;2023-07-22T02:22:55;18.00;62.30
33863;DHT22;20158;51.436;-2.742;2023-07-22T02:25:21;18.10;62.50
33863;DHT22;20158;51.436;-2.742;2023-07-22T02:27:46;18.00;62.40
33863;DHT22;20158;51.436;-2.742;2023-07-22T02:30:12;18.00;62.40
33863;DHT22;20158;51.436;-2.742;2023-07-22T02:32:40;18.00;62.50
33863;DHT22;20158;51.436;-2.742;2023-07-22T02:35:07;18.00;62.60
33863;DHT22;20158;51.436;-2.742;2023-07-22T02:37:35;18.00;62.60
33863;DHT22;20158;51.436;-2.742;2023-07-22T02:40:01;18.00;62.60
33863;DHT22;20158;51.436;-2.742;2023-07-22T02:42:35;18.00;62.60
33863;DHT22;20158;51.436;-2.742;2023-07-22T02:45:02;17.90;62.50
33863;DHT22;20158;51.436;-2.742;2023-07-22T02:47:28;17.90;62.50
33863;DHT22;20158;51.436;-2.742;2023-07-22T02:49:54;17.90;62.60
33863;DHT22;20158;51.436;-2.742;2023-07-22T02:52:21;17.90;62.60
33863;DHT22;20158;51.436;-2.742;2023-07-22T02:55:10;17.90;62.60
33863;DHT22;20158;51.436;-2.742;2023-07-22T02:57:38;17.80;62.60
33863;DHT22;20158;51.436;-2.742;2023-07-22T03:00:06;17.80;62.50
33863;DHT22;20158;51.436;-2.742;2023-07-22T03:02:37;17.80;62.60
33863;DHT22;20158;51.436;-2.742;2023-07-22T03:05:05;17.80;62.60
33863;DHT22;20158;51.436;-2.742;2023-07-22T03:07:42;17.80;62.70
33863;DHT22;20158;51.436;-2.742;2023-07-22T03:10:09;17.80;62.80
33863;DHT22;20158;51.436;-2.742;2023-07-22T03:12:36;17.80;62.70
33863;DHT22;20158;51.436;-2.742;2023-07-22T03:15:03;17.70;62.60
33863;DHT22;20158;51.436;-2.742;2023-07-22T03:17:29;17.70;62.70
33863;DHT22;20158;51.436;-2.742;2023-07-22T03:19:56;17.70;62.70
33863;DHT22;20158;51.436;-2.742;2023-07-22T03:22:22;17.70;62.80
33863;DHT22;20158;51.436;-2.742;2023-07-22T03:24:48;17.70;62.80
33863;DHT22;20158;51.436;-2.742;2023-07-22T03:27:15;17.60;62.60
33863;DHT22;20158;51.436;-2.742;2023-07-22T03:29:43;17.60;62.70
33863;DHT22;20158;51.436;-2.742;2023-07-22T03:32:09;17.60;62.80
33863;DHT22;20158;51.436;-2.742;2023-07-22T03:34:35;17.60;62.80
33863;DHT22;20158;51.436;-2.742;2023-07-22T03:37:01;17.50;62.70
33863;DHT22;20158;51.436;-2.742;2023-07-22T03:39:27;17.50;62.80
33863;DHT22;20158;51.436;-2.742;2023-07-22T03:41:53;17.50;62.90
33863;DHT22;20158;51.436;-2.742;2023-07-22T03:44:19;17.50;62.90
33863;DHT22;20158;51.436;-2.742;2023-07-22T03:46:45;17.50;62.90
33863;DHT22;20158;51.436;-2.742;2023-07-22T03:49:11;17.60;63.20
33863;DHT22;20158;51.436;-2.742;2023-07-22T03:51:37;17.50;63.00
33863;DHT22;20158;51.436;-2.742;2023-07-22T03:54:03;17.50;63.00
33863;DHT22;20158;51.436;-2.742;2023-07-22T03:56:30;17.50;63.10
33863;DHT22;20158;51.436;-2.742;2023-07-22T03:58:56;17.50;63.20
33863;DHT22;20158;51.436;-2.742;2023-07-22T04:01:22;17.50;63.20
33863;DHT22;20158;51.436;-2.742;2023-07-22T04:03:48;17.50;63.20
33863;DHT22;20158;51.436;-2.742;2023-07-22T04:06:14;17.50;63.30
33863;DHT22;20158;51.436;-2.742;2023-07-22T04:08:40;17.40;63.10
33863;DHT22;20158;51.436;-2.742;2023-07-22T04:11:06;17.40;63.20
33863;DHT22;20158;51.436;-2.742;2023-07-22T04:13:32;17.40;63.20
33863;DHT22;20158;51.436;-2.742;2023-07-22T04:15:58;17.40;63.20
33863;DHT22;20158;51.436;-2.742;2023-07-22T04:18:24;17.40;63.30
33863;DHT22;20158;51.436;-2.742;2023-07-22T04:20:55;17.40;63.30
33863;DHT22;20158;51.436;-2.742;2023-07-22T04:23:21;17.40;63.40
33863;DHT22;20158;51.436;-2.742;2023-07-22T04:25:48;17.40;63.30
33863;DHT22;20158;51.436;-2.742;2023-07-22T04:28:14;17.40;63.50
33863;DHT22;20158;51.436;-2.742;2023-07-22T04:30:40;17.40;63.50
33863;DHT22;20158;51.436;-2.742;2023-07-22T04:33:06;17.30;63.30
33863;DHT22;20158;51.436;-2.742;2023-07-22T04:35:32;17.30;63.70
33863;DHT22;20158;51.436;-2.742;2023-07-22T04:37:59;17.30;63.50
33863;DHT22;20158;51.436;-2.742;2023-07-22T04:40:25;17.30;63.60
33863;DHT22;20158;51.436;-2.742;2023-07-22T04:42:51;17.30;63.60
33863;DHT22;20158;51.436;-2.742;2023-07-22T04:45:17;17.30;64.20
33863;DHT22;20158;51.436;-2.742;2023-07-22T04:47:46;17.30;63.70
33863;DHT22;20158;51.436;-2.742;2023-07-22T04:50:14;17.30;63.80
33863;DHT22;20158;51.436;-2.742;2023-07-22T04:52:43;17.30;63.80
33863;DHT22;20158;51.436;-2.742;2023-07-22T04:55:11;17.30;63.90
33863;DHT22;20158;51.436;-2.742;2023-07-22T04:57:41;17.30;63.80
33863;DHT22;20158;51.436;-2.742;2023-07-22T05:00:08;17.30;63.90
33863;DHT22;20158;51.436;-2.742;2023-07-22T05:02:42;17.40;64.10
33863;DHT22;20158;51.436;-2.742;2023-07-22T05:05:14;17.30;63.90
33863;DHT22;20158;51.436;-2.742;2023-07-22T05:07:40;17.30;64.00
33863;DHT22;20158;51.436;-2.742;2023-07-22T05:10:07;17.30;64.00
33863;DHT22;20158;51.436;-2.742;2023-07-22T05:12:38;17.40;64.30
33863;DHT22;20158;51.436;-2.742;2023-07-22T05:15:05;17.40;64.40
33863;DHT22;20158;51.436;-2.742;2023-07-22T05:17:32;17.40;64.40
33863;DHT22;20158;51.436;-2.742;2023-07-22T05:19:58;17.40;64.40
33863;DHT22;20158;51.436;-2.742;2023-07-22T05:22:24;17.40;64.60
33863;DHT22;20158;51.436;-2.742;2023-07-22T05:24:50;17.40;64.60
33863;DHT22;20158;51.436;-2.742;2023-07-22T05:27:17;17.40;64.60
33863;DHT22;20158;51.436;-2.742;2023-07-22T05:29:44;17.40;64.60
33863;DHT22;20158;51.436;-2.742;2023-07-22T05:32:10;17.40;64.60
33863;DHT22;20158;51.436;-2.742;2023-07-22T05:34:36;17.50;64.80
33863;DHT22;20158;51.436;-2.742;2023-07-22T05:37:02;17.50;64.80
33863;DHT22;20158;51.436;-2.742;2023-07-22T05:39:28;17.50;64.90
33863;DHT22;20158;51.436;-2.742;2023-07-22T05:41:54;17.60;65.10
33863;DHT22;20158;51.436;-2.742;2023-07-22T05:44:21;17.60;65.10
33863;DHT22;20158;51.436;-2.742;2023-07-22T05:46:47;17.70;65.30
33863;DHT22;20158;51.436;-2.742;2023-07-22T05:49:13;17.60;65.10
33863;DHT22;20158;51.436;-2.742;2023-07-22T05:51:39;17.70;65.30
33863;DHT22;20158;51.436;-2.742;2023-07-22T05:54:05;17.70;65.30
33863;DHT22;20158;51.436;-2.742;2023-07-22T05:56:31;17.80;65.50
33863;DHT22;20158;51.436;-2.742;2023-07-22T05:58:57;17.80;65.50
33863;DHT22;20158;51.436;-2.742;2023-07-22T06:01:24;17.90;65.60
33863;DHT22;20158;51.436;-2.742;2023-07-22T06:03:52;17.90;65.50
33863;DHT22;20158;51.436;-2.742;2023-07-22T06:06:19;18.00;65.50
33863;DHT22;20158;51.436;-2.742;2023-07-22T06:08:44;18.00;65.40
33863;DHT22;20158;51.436;-2.742;2023-07-22T06:11:10;18.10;65.50
33863;DHT22;20158;51.436;-2.742;2023-07-22T06:13:36;18.20;65.50
33863;DHT22;20158;51.436;-2.742;2023-07-22T06:16:03;18.20;65.30
33863;DHT22;20158;51.436;-2.742;2023-07-22T06:18:29;18.30;65.30
33863;DHT22;20158;51.436;-2.742;2023-07-22T06:20:55;18.40;65.30
33863;DHT22;20158;51.436;-2.742;2023-07-22T06:23:21;18.40;65.10
33863;DHT22;20158;51.436;-2.742;2023-07-22T06:25:47;18.50;65.10
33863;DHT22;20158;51.436;-2.742;2023-07-22T06:28:13;18.60;65.00
33863;DHT22;20158;51.436;-2.742;2023-07-22T06:30:39;18.70;65.00
33863;DHT22;20158;51.436;-2.742;2023-07-22T06:33:04;18.80;64.90
33863;DHT22;20158;51.436;-2.742;2023-07-22T06:35:31;18.90;64.90
33863;DHT22;20158;51.436;-2.742;2023-07-22T06:37:57;19.10;65.00
33863;DHT22;20158;51.436;-2.742;2023-07-22T06:40:24;19.20;65.00
33863;DHT22;20158;51.436;-2.742;2023-07-22T06:42:51;19.40;64.90
33863;DHT22;20158;51.436;-2.742;2023-07-22T06:45:18;19.50;64.80
33863;DHT22;20158;51.436;-2.742;2023-07-22T06:47:44;19.60;64.70
33863;DHT22;20158;51.436;-2.742;2023-07-22T06:50:11;19.60;64.50
33863;DHT22;20158;51.436;-2.742;2023-07-22T06:52:36;19.60;64.40
33863;DHT22;20158;51.436;-2.742;2023-07-22T06:55:03;19.60;64.30
33863;DHT22;20158;51.436;-2.742;2023-07-22T06:57:29;19.60;64.90
33863;DHT22;20158;51.436;-2.742;2023-07-22T06:59:55;19.60;64.40
33863;DHT22;20158;51.436;-2.742;2023-07-22T07:02:22;19.60;64.40
33863;DHT22;20158;51.436;-2.742;2023-07-22T07:04:48;19.60;64.30
33863;DHT22;20158;51.436;-2.742;2023-07-22T07:07:15;19.60;64.20
33863;DHT22;20158;51.436;-2.742;2023-07-22T07:09:42;19.70;64.20
33863;DHT22;20158;51.436;-2.742;2023-07-22T07:12:08;19.70;64.00
33863;DHT22;20158;51.436;-2.742;2023-07-22T07:14:35;19.80;64.10
33863;DHT22;20158;51.436;-2.742;2023-07-22T07:17:01;19.80;63.90
33863;DHT22;20158;51.436;-2.742;2023-07-22T07:19:28;19.90;63.90
33863;DHT22;20158;51.436;-2.742;2023-07-22T07:21:54;20.00;63.90
33863;DHT22;20158;51.436;-2.742;2023-07-22T07:24:20;20.00;63.70
33863;DHT22;20158;51.436;-2.742;2023-07-22T07:26:46;20.10;63.70
33863;DHT22;20158;51.436;-2.742;2023-07-22T07:29:13;20.20;63.60
33863;DHT22;20158;51.436;-2.742;2023-07-22T07:31:39;20.30;63.70
33863;DHT22;20158;51.436;-2.742;2023-07-22T07:34:05;20.40;63.80
33863;DHT22;20158;51.436;-2.742;2023-07-22T07:36:33;20.50;63.80
33863;DHT22;20158;51.436;-2.742;2023-07-22T07:39:00;20.50;63.70
33863;DHT22;20158;51.436;-2.742;2023-07-22T07:41:27;20.50;63.70
33863;DHT22;20158;51.436;-2.742;2023-07-22T07:43:53;20.50;63.80
33863;DHT22;20158;51.436;-2.742;2023-07-22T07:46:22;20.60;64.00
33863;DHT22;20158;51.436;-2.742;2023-07-22T07:48:55;20.60;64.00
33863;DHT22;20158;51.436;-2.742;2023-07-22T07:51:22;20.60;64.20
33863;DHT22;20158;51.436;-2.742;2023-07-22T07:53:50;20.60;64.10
33863;DHT22;20158;51.436;-2.742;2023-07-22T07:56:18;20.60;64.10
33863;DHT22;20158;51.436;-2.742;2023-07-22T07:58:45;20.70;64.40
33863;DHT22;20158;51.436;-2.742;2023-07-22T08:01:11;20.60;64.30
33863;DHT22;20158;51.436;-2.742;2023-07-22T08:03:39;20.70;64.50
33863;DHT22;20158;51.436;-2.742;2023-07-22T08:06:08;20.70;64.50
33863;DHT22;20158;51.436;-2.742;2023-07-22T08:08:35;20.70;64.60
33863;DHT22;20158;51.436;-2.742;2023-07-22T08:11:09;20.70;64.60
33863;DHT22;20158;51.436;-2.742;2023-07-22T08:13:36;20.70;64.70
33863;DHT22;20158;51.436;-2.742;2023-07-22T08:16:04;20.70;64.70
33863;DHT22;20158;51.436;-2.742;2023-07-22T08:18:31;20.70;64.70
33863;DHT22;20158;51.436;-2.742;2023-07-22T08:20:57;20.70;64.70
33863;DHT22;20158;51.436;-2.742;2023-07-22T08:23:24;20.60;64.60
33863;DHT22;20158;51.436;-2.742;2023-07-22T08:25:50;20.60;64.60
33863;DHT22;20158;51.436;-2.742;2023-07-22T08:28:17;20.60;64.70
33863;DHT22;20158;51.436;-2.742;2023-07-22T08:30:43;20.50;64.60
33863;DHT22;20158;51.436;-2.742;2023-07-22T08:33:11;20.50;64.70
33863;DHT22;20158;51.436;-2.742;2023-07-22T08:35:38;20.50;64.80
33863;DHT22;20158;51.436;-2.742;2023-07-22T08:38:04;20.50;64.80
33863;DHT22;20158;51.436;-2.742;2023-07-22T08:40:38;20.50;64.80
33863;DHT22;20158;51.436;-2.742;2023-07-22T08:43:06;20.50;64.90
33863;DHT22;20158;51.436;-2.742;2023-07-22T08:45:34;20.50;64.80
33863;DHT22;20158;51.436;-2.742;2023-07-22T08:48:04;20.60;65.00
33863;DHT22;20158;51.436;-2.742;2023-07-22T08:50:45;20.60;65.00
33863;DHT22;20158;51.436;-2.742;2023-07-22T08:53:15;20.60;65.00
33863;DHT22;20158;51.436;-2.742;2023-07-22T08:55:42;20.60;65.00
33863;DHT22;20158;51.436;-2.742;2023-07-22T08:58:09;20.60;65.00
33863;DHT22;20158;51.436;-2.742;2023-07-22T09:00:36;20.60;65.00
33863;DHT22;20158;51.436;-2.742;2023-07-22T09:03:02;20.70;65.10
33863;DHT22;20158;51.436;-2.742;2023-07-22T09:05:32;20.70;65.00
33863;DHT22;20158;51.436;-2.742;2023-07-22T09:08:01;20.70;65.00
33863;DHT22;20158;51.436;-2.742;2023-07-22T09:10:28;20.60;64.80
33863;DHT22;20158;51.436;-2.742;2023-07-22T09:12:54;20.60;64.80
33863;DHT22;20158;51.436;-2.742;2023-07-22T09:15:21;20.60;64.80
33863;DHT22;20158;51.436;-2.742;2023-07-22T09:17:49;20.60;64.80
33863;DHT22;20158;51.436;-2.742;2023-07-22T09:20:15;20.50;64.70
33863;DHT22;20158;51.436;-2.742;2023-07-22T09:22:47;20.50;64.80
33863;DHT22;20158;51.436;-2.742;2023-07-22T09:25:21;20.50;64.80
33863;DHT22;20158;51.436;-2.742;2023-07-22T09:27:52;20.50;64.80
33863;DHT22;20158;51.436;-2.742;2023-07-22T09:30:27;20.50;64.80
33863;DHT22;20158;51.436;-2.742;2023-07-22T09:32:55;20.50;64.80
33863;DHT22;20158;51.436;-2.742;2023-07-22T09:35:23;20.50;65.30
33863;DHT22;20158;51.436;-2.742;2023-07-22T09:37:49;20.50;64.70
33863;DHT22;20158;51.436;-2.742;2023-07-22T09:40:20;20.50;64.70
33863;DHT22;20158;51.436;-2.742;2023-07-22T09:42:51;20.50;64.70
33863;DHT22;20158;51.436;-2.742;2023-07-22T09:45:19;20.50;64.60
33863;DHT22;20158;51.436;-2.742;2023-07-22T09:47:48;20.50;64.60
33863;DHT22;20158;51.436;-2.742;2023-07-22T09:50:17;20.40;64.40
33863;DHT22;20158;51.436;-2.742;2023-07-22T09:52:51;20.40;64.50
33863;DHT22;20158;51.436;-2.742;2023-07-22T09:55:23;20.40;64.60
33863;DHT22;20158;51.436;-2.742;2023-07-22T09:57:53;20.40;64.60
33863;DHT22;20158;51.436;-2.742;2023-07-22T10:00:19;20.40;64.50
33863;DHT22;20158;51.436;-2.742;2023-07-22T10:02:48;20.40;64.50
33863;DHT22;20158;51.436;-2.742;2023-07-22T10:05:19;20.30;64.30
33863;DHT22;20158;51.436;-2.742;2023-07-22T10:07:55;20.30;64.40
33863;DHT22;20158;51.436;-2.742;2023-07-22T10:10:34;20.30;64.50
33863;DHT22;20158;51.436;-2.742;2023-07-22T10:13:02;20.30;64.50
33863;DHT22;20158;51.436;-2.742;2023-07-22T10:15:30;20.30;64.40
33863;DHT22;20158;51.436;-2.742;2023-07-22T10:17:56;20.30;64.40
33863;DHT22;20158;51.436;-2.742;2023-07-22T10:20:24;20.30;64.40
33863;DHT22;20158;51.436;-2.742;2023-07-22T10:22:51;20.40;64.60
33863;DHT22;20158;51.436;-2.742;2023-07-22T10:25:18;20.40;64.60
33863;DHT22;20158;51.436;-2.742;2023-07-22T10:27:45;20.30;65.10
33863;DHT22;20158;51.436;-2.742;2023-07-22T10:30:14;20.30;64.50
33863;DHT22;20158;51.436;-2.742;2023-07-22T10:32:47;20.40;64.70
33863;DHT22;20158;51.436;-2.742;2023-07-22T10:38:17;20.40;64.70
33863;DHT22;20158;51.436;-2.742;2023-07-22T10:41:01;20.40;64.80
33863;DHT22;20158;51.436;-2.742;2023-07-22T10:43:36;20.40;65.30
33863;DHT22;20158;51.436;-2.742;2023-07-22T10:46:11;20.50;65.30
33863;DHT22;20158;51.436;-2.742;2023-07-22T10:48:40;20.60;65.70
33863;DHT22;20158;51.436;-2.742;2023-07-22T10:51:12;20.70;66.10
33863;DHT22;20158;51.436;-2.742;2023-07-22T10:53:43;20.70;66.40
33863;DHT22;20158;51.436;-2.742;2023-07-22T11:14:26;21.60;70.60
33863;DHT22;20158;51.436;-2.742;2023-07-22T11:16:53;21.70;70.60
33863;DHT22;20158;51.436;-2.742;2023-07-22T11:19:21;21.70;70.20
33863;DHT22;20158;51.436;-2.742;2023-07-22T11:21:49;21.80;70.10
33863;DHT22;20158;51.436;-2.742;2023-07-22T11:24:15;21.90;69.90
33863;DHT22;20158;51.436;-2.742;2023-07-22T11:26:42;22.10;69.90
33863;DHT22;20158;51.436;-2.742;2023-07-22T11:29:09;22.20;69.70
33863;DHT22;20158;51.436;-2.742;2023-07-22T11:31:38;22.20;69.40
33863;DHT22;20158;51.436;-2.742;2023-07-22T11:34:09;22.30;69.30
33863;DHT22;20158;51.436;-2.742;2023-07-22T11:36:35;22.40;69.20
33863;DHT22;20158;51.436;-2.742;2023-07-22T11:39:06;22.50;69.00
33863;DHT22;20158;51.436;-2.742;2023-07-22T11:41:33;22.50;68.60
33863;DHT22;20158;51.436;-2.742;2023-07-22T11:44:00;22.60;68.40
33863;DHT22;20158;51.436;-2.742;2023-07-22T11:46:27;22.60;68.10
33863;DHT22;20158;51.436;-2.742;2023-07-22T11:48:55;22.60;67.80
33863;DHT22;20158;51.436;-2.742;2023-07-22T11:51:22;22.70;67.80
33863;DHT22;20158;51.436;-2.742;2023-07-22T11:53:53;22.70;67.60
33863;DHT22;20158;51.436;-2.742;2023-07-22T11:56:25;22.80;67.50
33863;DHT22;20158;51.436;-2.742;2023-07-22T11:58:56;22.80;67.10
33863;DHT22;20158;51.436;-2.742;2023-07-22T12:01:23;22.90;67.10
33863;DHT22;20158;51.436;-2.742;2023-07-22T12:03:54;22.90;67.00
33863;DHT22;20158;51.436;-2.742;2023-07-22T12:06:25;23.00;66.90
33863;DHT22;20158;51.436;-2.742;2023-07-22T12:08:52;23.10;66.80
33863;DHT22;20158;51.436;-2.742;2023-07-22T12:11:20;23.10;66.60
33863;DHT22;20158;51.436;-2.742;2023-07-22T12:13:47;23.20;66.50
33863;DHT22;20158;51.436;-2.742;2023-07-22T12:16:22;23.30;66.50
33863;DHT22;20158;51.436;-2.742;2023-07-22T12:18:54;23.40;66.30
33863;DHT22;20158;51.436;-2.742;2023-07-22T12:21:21;23.50;66.20
33863;DHT22;20158;51.436;-2.742;2023-07-22T12:23:47;23.50;66.00
33863;DHT22;20158;51.436;-2.742;2023-07-22T12:26:13;23.50;65.90
33863;DHT22;20158;51.436;-2.742;2023-07-22T12:28:39;23.50;65.80
33863;DHT22;20158;51.436;-2.742;2023-07-22T12:31:05;23.50;65.80
33863;DHT22;20158;51.436;-2.742;2023-07-22T12:33:31;23.50;65.80
33863;DHT22;20158;51.436;-2.742;2023-07-22T12:35:57;23.50;65.60
33863;DHT22;20158;51.436;-2.742;2023-07-22T12:38:24;23.70;65.60
33863;DHT22;20158;51.436;-2.742;2023-07-22T12:40:50;23.90;65.60
33863;DHT22;20158;51.436;-2.742;2023-07-22T12:43:16;24.10;65.50
33863;DHT22;20158;51.436;-2.742;2023-07-22T12:45:42;24.50;65.50
33863;DHT22;20158;51.436;-2.742;2023-07-22T12:48:09;24.70;65.20
33863;DHT22;20158;51.436;-2.742;2023-07-22T12:50:35;25.00;65.00
33863;DHT22;20158;51.436;-2.742;2023-07-22T12:53:01;25.30;64.60
33863;DHT22;20158;51.436;-2.742;2023-07-22T12:55:28;25.50;64.20
33863;DHT22;20158;51.436;-2.742;2023-07-22T12:57:55;25.60;63.70
33863;DHT22;20158;51.436;-2.742;2023-07-22T13:00:21;25.80;63.40
33863;DHT22;20158;51.436;-2.742;2023-07-22T13:02:47;26.00;63.10
33863;DHT22;20158;51.436;-2.742;2023-07-22T13:05:13;26.20;62.80
33863;DHT22;20158;51.436;-2.742;2023-07-22T13:07:39;26.30;62.40
33863;DHT22;20158;51.436;-2.742;2023-07-22T13:10:06;26.40;62.00
33863;DHT22;20158;51.436;-2.742;2023-07-22T13:12:37;26.50;61.80
33863;DHT22;20158;51.436;-2.742;2023-07-22T13:15:04;26.50;61.70
33863;DHT22;20158;51.436;-2.742;2023-07-22T13:17:31;26.50;61.70
33863;DHT22;20158;51.436;-2.742;2023-07-22T13:19:57;26.40;61.70
33863;DHT22;20158;51.436;-2.742;2023-07-22T13:22:23;26.20;61.70
33863;DHT22;20158;51.436;-2.742;2023-07-22T13:24:49;26.20;61.90
33863;DHT22;20158;51.436;-2.742;2023-07-22T13:27:16;26.20;62.00
33863;DHT22;20158;51.436;-2.742;2023-07-22T13:29:41;26.20;61.90
33863;DHT22;20158;51.436;-2.742;2023-07-22T13:32:08;26.20;61.80
33863;DHT22;20158;51.436;-2.742;2023-07-22T13:34:34;26.20;61.80
33863;DHT22;20158;51.436;-2.742;2023-07-22T13:37:00;26.10;61.70
33863;DHT22;20158;51.436;-2.742;2023-07-22T13:39:28;26.10;61.80
33863;DHT22;20158;51.436;-2.742;2023-07-22T13:41:54;26.00;61.80
33863;DHT22;20158;51.436;-2.742;2023-07-22T13:44:20;26.00;61.90
33863;DHT22;20158;51.436;-2.742;2023-07-22T13:46:46;25.90;62.00
33863;DHT22;20158;51.436;-2.742;2023-07-22T13:49:13;25.80;62.10
33863;DHT22;20158;51.436;-2.742;2023-07-22T13:51:40;25.70;62.20
33863;DHT22;20158;51.436;-2.742;2023-07-22T13:54:07;25.60;62.30
33863;DHT22;20158;51.436;-2.742;2023-07-22T13:56:33;25.50;62.50
33863;DHT22;20158;51.436;-2.742;2023-07-22T13:59:00;25.50;62.60
33863;DHT22;20158;51.436;-2.742;2023-07-22T14:01:27;25.50;62.60
33863;DHT22;20158;51.436;-2.742;2023-07-22T14:03:53;25.40;62.60
33863;DHT22;20158;51.436;-2.742;2023-07-22T14:06:20;25.50;62.70
33863;DHT22;20158;51.436;-2.742;2023-07-22T14:08:46;25.50;62.60
33863;DHT22;20158;51.436;-2.742;2023-07-22T14:11:12;25.50;62.60
33863;DHT22;20158;51.436;-2.742;2023-07-22T14:13:38;25.50;62.60
33863;DHT22;20158;51.436;-2.742;2023-07-22T14:16:04;25.50;62.60
33863;DHT22;20158;51.436;-2.742;2023-07-22T14:18:30;25.40;62.60
33863;DHT22;20158;51.436;-2.742;2023-07-22T14:20:56;25.40;62.60
33863;DHT22;20158;51.436;-2.742;2023-07-22T14:23:22;25.40;62.60
33863;DHT22;20158;51.436;-2.742;2023-07-22T14:25:48;25.40;62.60
33863;DHT22;20158;51.436;-2.742;2023-07-22T14:28:15;25.50;62.60
33863;DHT22;20158;51.436;-2.742;2023-07-22T14:30:41;25.50;62.60
33863;DHT22;20158;51.436;-2.742;2023-07-22T14:33:06;25.50;62.60
33863;DHT22;20158;51.436;-2.742;2023-07-22T14:35:32;25.50;62.50
33863;DHT22;20158;51.436;-2.742;2023-07-22T14:38:00;25.50;62.50
33863;DHT22;20158;51.436;-2.742;2023-07-22T14:40:26;25.50;62.50
33863;DHT22;20158;51.436;-2.742;2023-07-22T14:42:52;25.40;62.60
33863;DHT22;20158;51.436;-2.742;2023-07-22T14:45:18;25.30;62.70
33863;DHT22;20158;51.436;-2.742;2023-07-22T14:47:44;25.30;62.80
33863;DHT22;20158;51.436;-2.742;2023-07-22T14:50:10;25.20;62.90
33863;DHT22;20158;51.436;-2.742;2023-07-22T14:52:36;25.20;63.00
33863;DHT22;20158;51.436;-2.742;2023-07-22T14:55:03;25.20;63.00
33863;DHT22;20158;51.436;-2.742;2023-07-22T14:57:29;25.20;62.90
33863;DHT22;20158;51.436;-2.742;2023-07-22T14:59:56;25.30;62.90
33863;DHT22;20158;51.436;-2.742;2023-07-22T15:02:23;25.40;62.90
33863;DHT22;20158;51.436;-2.742;2023-07-22T15:04:49;25.40;62.80
33863;DHT22;20158;51.436;-2.742;2023-07-22T15:07:15;25.40;62.70
33863;DHT22;20158;51.436;-2.742;2023-07-22T15:09:41;25.50;62.70
33863;DHT22;20158;51.436;-2.742;2023-07-22T15:12:07;25.50;62.70
33863;DHT22;20158;51.436;-2.742;2023-07-22T15:14:35;25.60;62.60
33863;DHT22;20158;51.436;-2.742;2023-07-22T15:17:01;25.70;62.60
33863;DHT22;20158;51.436;-2.742;2023-07-22T15:19:28;25.80;62.50
33863;DHT22;20158;51.436;-2.742;2023-07-22T15:21:54;25.90;62.30
33863;DHT22;20158;51.436;-2.742;2023-07-22T15:24:20;26.00;62.20
33863;DHT22;20158;51.436;-2.742;2023-07-22T15:26:46;26.10;62.00
33863;DHT22;20158;51.436;-2.742;2023-07-22T15:29:12;26.20;61.90
33863;DHT22;20158;51.436;-2.742;2023-07-22T15:31:38;26.20;61.80
33863;DHT22;20158;51.436;-2.742;2023-07-22T15:34:05;26.20;61.70
33863;DHT22;20158;51.436;-2.742;2023-07-22T15:36:31;26.20;61.70